sensor_id;sensor_type;location;lat;lon;timestamp;pressure;altitude;pressure_sealevel;temperature;humidity
73952;BME280;62304;47.662;18.324;2023-05-07T00:00:43;100349.06;;;14.20;96.33
73952;BME280;62304;47.662;18.324;2023-05-07T00:03:46;100344.63;;;14.16;95.90
73952;BME280;62304;47.662;18.324;2023-05-07T00:06:50;100342.63;;;14.16;95.94
73952;BME280;62304;47.662;18.324;2023-05-07T00:09:53;100341.50;;;14.31;95.03
73952;BME280;62304;47.662;18.324;2023-05-07T00:12:57;100334.28;;;14.20;95.70
73952;BME280;62304;47.662;18.324;2023-05-07T00:16:00;100323.84;;;14.03;95.85
73952;BME280;62304;47.662;18.324;2023-05-07T00:19:04;100332.59;;;13.91;96.69
73952;BME280;62304;47.662;18.324;2023-05-07T00:22:07;100336.94;;;13.81;96.37
73952;BME280;62304;47.662;18.324;2023-05-07T00:25:12;100332.50;;;13.70;97.26
73952;BME280;62304;47.662;18.324;2023-05-07T00:28:16;100349.63;;;13.68;97.64
73952;BME280;62304;47.662;18.324;2023-05-07T00:31:19;100352.44;;;13.72;97.59
73952;BME280;62304;47.662;18.324;2023-05-07T00:34:22;100348.47;;;13.80;97.25
73952;BME280;62304;47.662;18.324;2023-05-07T00:37:25;100340.31;;;13.43;99.65
73952;BME280;62304;47.662;18.324;2023-05-07T00:40:28;100341.44;;;13.32;100.00
73952;BME280;62304;47.662;18.324;2023-05-07T00:43:31;100338.28;;;13.37;99.88
73952;BME280;62304;47.662;18.324;2023-05-07T00:46:34;100343.56;;;13.49;99.21
73952;BME280;62304;47.662;18.324;2023-05-07T00:49:42;100349.19;;;13.66;98.68
73952;BME280;62304;47.662;18.324;2023-05-07T00:52:46;100338.06;;;13.66;97.69
73952;BME280;62304;47.662;18.324;2023-05-07T00:55:49;100332.06;;;13.57;98.28
73952;BME280;62304;47.662;18.324;2023-05-07T00:58:53;100332.44;;;13.59;97.86
73952;BME280;62304;47.662;18.324;2023-05-07T01:01:56;100340.38;;;13.54;98.61
73952;BME280;62304;47.662;18.324;2023-05-07T01:05:00;100341.22;;;13.61;99.11
73952;BME280;62304;47.662;18.324;2023-05-07T01:08:04;100334.12;;;13.74;98.49
73952;BME280;62304;47.662;18.324;2023-05-07T01:11:09;100340.88;;;13.73;98.32
73952;BME280;62304;47.662;18.324;2023-05-07T01:14:13;100349.66;;;13.75;98.75
73952;BME280;62304;47.662;18.324;2023-05-07T01:17:17;100341.38;;;13.93;98.40
73952;BME280;62304;47.662;18.324;2023-05-07T01:20:21;100346.50;;;13.80;98.96
73952;BME280;62304;47.662;18.324;2023-05-07T01:23:27;100350.75;;;13.60;99.69
73952;BME280;62304;47.662;18.324;2023-05-07T01:26:30;100342.69;;;13.38;100.00
73952;BME280;62304;47.662;18.324;2023-05-07T01:29:34;100350.59;;;13.32;100.00
73952;BME280;62304;47.662;18.324;2023-05-07T01:32:58;100357.72;;;13.23;100.00
73952;BME280;62304;47.662;18.324;2023-05-07T01:36:04;100347.41;;;13.30;100.00
73952;BME280;62304;47.662;18.324;2023-05-07T01:39:09;100352.22;;;13.37;100.00
73952;BME280;62304;47.662;18.324;2023-05-07T01:42:13;100351.81;;;13.35;100.00
73952;BME280;62304;47.662;18.324;2023-05-07T01:45:16;100342.34;;;13.46;100.00
73952;BME280;62304;47.662;18.324;2023-05-07T01:48:20;100337.22;;;13.59;99.84
73952;BME280;62304;47.662;18.324;2023-05-07T01:51:23;100339.50;;;13.39;100.00
73952;BME280;62304;47.662;18.324;2023-05-07T01:54:27;100333.19;;;13.53;99.96
73952;BME280;62304;47.662;18.324;2023-05-07T01:57:30;100340.81;;;13.59;98.72
73952;BME280;62304;47.662;18.324;2023-05-07T02:00:34;100341.66;;;13.70;98.23
73952;BME280;62304;47.662;18.324;2023-05-07T02:03:42;100343.59;;;13.59;97.99
73952;BME280;62304;47.662;18.324;2023-05-07T02:06:46;100343.62;;;13.66;96.66
73952;BME280;62304;47.662;18.324;2023-05-07T02:09:50;100339.66;;;13.67;96.84
73952;BME280;62304;47.662;18.324;2023-05-07T02:12:53;100345.22;;;13.67;96.73
73952;BME280;62304;47.662;18.324;2023-05-07T02:15:57;100332.78;;;13.47;97.55
73952;BME280;62304;47.662;18.324;2023-05-07T02:19:00;100344.72;;;13.48;97.30
73952;BME280;62304;47.662;18.324;2023-05-07T02:22:03;100333.88;;;13.29;97.68
73952;BME280;62304;47.662;18.324;2023-05-07T02:25:07;100341.38;;;13.21;96.95
73952;BME280;62304;47.662;18.324;2023-05-07T02:28:10;100328.97;;;13.08;98.22
73952;BME280;62304;47.662;18.324;2023-05-07T02:31:13;100334.56;;;13.15;97.91
73952;BME280;62304;47.662;18.324;2023-05-07T02:34:17;100330.50;;;13.02;98.00
73952;BME280;62304;47.662;18.324;2023-05-07T02:37:20;100332.91;;;13.07;97.78
73952;BME280;62304;47.662;18.324;2023-05-07T02:40:23;100331.84;;;13.26;97.31
73952;BME280;62304;47.662;18.324;2023-05-07T02:43:27;100334.56;;;13.15;96.58
73952;BME280;62304;47.662;18.324;2023-05-07T02:46:30;100346.06;;;13.10;96.92
73952;BME280;62304;47.662;18.324;2023-05-07T02:49:33;100336.09;;;13.02;96.97
73952;BME280;62304;47.662;18.324;2023-05-07T02:52:36;100333.16;;;12.88;98.34
73952;BME280;62304;47.662;18.324;2023-05-07T02:55:39;100329.97;;;12.86;97.87
73952;BME280;62304;47.662;18.324;2023-05-07T02:58:42;100337.12;;;12.87;97.52
73952;BME280;62304;47.662;18.324;2023-05-07T03:01:46;100342.09;;;13.11;96.47
73952;BME280;62304;47.662;18.324;2023-05-07T03:04:49;100341.00;;;13.23;95.75
73952;BME280;62304;47.662;18.324;2023-05-07T03:07:55;100345.66;;;13.08;95.81
73952;BME280;62304;47.662;18.324;2023-05-07T03:10:58;100341.50;;;12.88;96.04
73952;BME280;62304;47.662;18.324;2023-05-07T03:14:02;100339.47;;;12.85;96.21
73952;BME280;62304;47.662;18.324;2023-05-07T03:17:05;100338.06;;;12.58;97.51
73952;BME280;62304;47.662;18.324;2023-05-07T03:20:08;100342.09;;;12.64;97.47
73952;BME280;62304;47.662;18.324;2023-05-07T03:23:12;100349.69;;;12.71;97.37
73952;BME280;62304;47.662;18.324;2023-05-07T03:26:16;100355.00;;;12.46;98.26
73952;BME280;62304;47.662;18.324;2023-05-07T03:29:19;100353.69;;;12.33;98.85
73952;BME280;62304;47.662;18.324;2023-05-07T03:32:22;100345.44;;;12.44;98.89
73952;BME280;62304;47.662;18.324;2023-05-07T03:35:25;100351.59;;;12.23;100.00
73952;BME280;62304;47.662;18.324;2023-05-07T03:38:29;100348.38;;;12.18;100.00
73952;BME280;62304;47.662;18.324;2023-05-07T03:41:32;100355.94;;;12.21;100.00
73952;BME280;62304;47.662;18.324;2023-05-07T03:44:35;100354.69;;;12.15;100.00
73952;BME280;62304;47.662;18.324;2023-05-07T03:47:41;100355.75;;;12.03;100.00
73952;BME280;62304;47.662;18.324;2023-05-07T03:50:46;100360.88;;;12.01;100.00
73952;BME280;62304;47.662;18.324;2023-05-07T03:53:50;100363.28;;;12.03;100.00
73952;BME280;62304;47.662;18.324;2023-05-07T03:56:55;100370.53;;;12.11;100.00
73952;BME280;62304;47.662;18.324;2023-05-07T03:59:58;100373.03;;;12.19;100.00
73952;BME280;62304;47.662;18.324;2023-05-07T04:03:01;100375.44;;;12.24;100.00
73952;BME280;62304;47.662;18.324;2023-05-07T04:06:04;100382.28;;;12.30;100.00
73952;BME280;62304;47.662;18.324;2023-05-07T04:09:08;100383.53;;;12.36;100.00
73952;BME280;62304;47.662;18.324;2023-05-07T04:12:12;100393.44;;;12.34;100.00
73952;BME280;62304;47.662;18.324;2023-05-07T04:15:15;100389.34;;;12.24;100.00
73952;BME280;62304;47.662;18.324;2023-05-07T04:18:18;100378.06;;;12.10;100.00
73952;BME280;62304;47.662;18.324;2023-05-07T04:21:23;100382.41;;;12.08;100.00
73952;BME280;62304;47.662;18.324;2023-05-07T04:24:26;100383.31;;;12.15;100.00
73952;BME280;62304;47.662;18.324;2023-05-07T04:27:29;100386.53;;;12.21;100.00
73952;BME280;62304;47.662;18.324;2023-05-07T04:30:32;100389.44;;;12.31;100.00
73952;BME280;62304;47.662;18.324;2023-05-07T04:33:37;100390.22;;;12.32;100.00
73952;BME280;62304;47.662;18.324;2023-05-07T04:36:41;100396.97;;;12.31;100.00
73952;BME280;62304;47.662;18.324;2023-05-07T04:39:45;100402.16;;;12.32;100.00
73952;BME280;62304;47.662;18.324;2023-05-07T04:42:48;100401.75;;;12.30;100.00
73952;BME280;62304;47.662;18.324;2023-05-07T04:45:51;100399.78;;;12.34;100.00
73952;BME280;62304;47.662;18.324;2023-05-07T04:48:56;100395.81;;;12.35;100.00
73952;BME280;62304;47.662;18.324;2023-05-07T04:51:58;100400.66;;;12.38;100.00
73952;BME280;62304;47.662;18.324;2023-05-07T04:55:02;100401.09;;;12.80;100.00
73952;BME280;62304;47.662;18.324;2023-05-07T04:58:07;100410.16;;;13.17;100.00
73952;BME280;62304;47.662;18.324;2023-05-07T05:01:11;100402.00;;;13.45;100.00
73952;BME280;62304;47.662;18.324;2023-05-07T05:04:14;100395.75;;;13.62;100.00
73952;BME280;62304;47.662;18.324;2023-05-07T05:07:17;100399.50;;;13.87;100.00
73952;BME280;62304;47.662;18.324;2023-05-07T05:10:21;100388.94;;;14.31;99.68
73952;BME280;62304;47.662;18.324;2023-05-07T05:13:26;100393.44;;;14.71;98.48
73952;BME280;62304;47.662;18.324;2023-05-07T05:16:29;100372.69;;;15.10;96.40
73952;BME280;62304;47.662;18.324;2023-05-07T05:19:32;100363.84;;;15.75;95.00
73952;BME280;62304;47.662;18.324;2023-05-07T05:22:35;100362.34;;;16.42;93.46
73952;BME280;62304;47.662;18.324;2023-05-07T05:25:39;100365.41;;;16.65;91.97
73952;BME280;62304;47.662;18.324;2023-05-07T05:28:43;100370.84;;;16.86;89.22
73952;BME280;62304;47.662;18.324;2023-05-07T05:31:46;100387.53;;;17.04;88.45
73952;BME280;62304;47.662;18.324;2023-05-07T05:34:49;100377.31;;;17.27;89.01
73952;BME280;62304;47.662;18.324;2023-05-07T05:37:52;100377.31;;;17.27;88.90
73952;BME280;62304;47.662;18.324;2023-05-07T05:40:55;100378.44;;;17.40;86.57
73952;BME280;62304;47.662;18.324;2023-05-07T05:43:58;100380.41;;;17.80;86.03
73952;BME280;62304;47.662;18.324;2023-05-07T05:47:02;100383.16;;;17.87;85.77
73952;BME280;62304;47.662;18.324;2023-05-07T05:50:07;100387.38;;;18.36;83.44
73952;BME280;62304;47.662;18.324;2023-05-07T05:53:10;100390.50;;;18.41;84.40
73952;BME280;62304;47.662;18.324;2023-05-07T05:56:14;100390.16;;;18.02;85.49
73952;BME280;62304;47.662;18.324;2023-05-07T05:59:17;100398.34;;;17.90;85.62
73952;BME280;62304;47.662;18.324;2023-05-07T06:02:21;100392.81;;;18.16;84.79
73952;BME280;62304;47.662;18.324;2023-05-07T06:05:25;100390.81;;;18.17;84.69
73952;BME280;62304;47.662;18.324;2023-05-07T06:08:29;100384.03;;;18.11;85.59
73952;BME280;62304;47.662;18.324;2023-05-07T06:11:33;100392.84;;;17.79;85.99
73952;BME280;62304;47.662;18.324;2023-05-07T06:14:35;100399.72;;;18.08;85.54
73952;BME280;62304;47.662;18.324;2023-05-07T06:17:39;100395.28;;;17.77;85.95
73952;BME280;62304;47.662;18.324;2023-05-07T06:20:43;100401.47;;;17.58;87.58
73952;BME280;62304;47.662;18.324;2023-05-07T06:23:47;100401.66;;;17.41;89.04
73952;BME280;62304;47.662;18.324;2023-05-07T06:26:50;100407.09;;;17.58;88.13
73952;BME280;62304;47.662;18.324;2023-05-07T06:29:53;100410.03;;;17.44;88.71
73952;BME280;62304;47.662;18.324;2023-05-07T06:32:57;100418.12;;;17.32;88.84
73952;BME280;62304;47.662;18.324;2023-05-07T06:36:00;100421.44;;;17.20;88.87
73952;BME280;62304;47.662;18.324;2023-05-07T06:39:04;100423.94;;;17.07;90.65
73952;BME280;62304;47.662;18.324;2023-05-07T06:42:07;100434.34;;;17.10;91.33
73952;BME280;62304;47.662;18.324;2023-05-07T06:45:15;100445.53;;;17.10;90.89
73952;BME280;62304;47.662;18.324;2023-05-07T06:48:18;100448.22;;;16.70;92.39
73952;BME280;62304;47.662;18.324;2023-05-07T06:51:21;100454.28;;;16.58;93.13
73952;BME280;62304;47.662;18.324;2023-05-07T06:54:25;100453.56;;;16.43;94.00
73952;BME280;62304;47.662;18.324;2023-05-07T06:57:28;100453.94;;;16.45;93.93
73952;BME280;62304;47.662;18.324;2023-05-07T07:00:31;100449.94;;;16.36;94.95
73952;BME280;62304;47.662;18.324;2023-05-07T07:03:34;100445.88;;;16.51;94.37
73952;BME280;62304;47.662;18.324;2023-05-07T07:06:38;100440.66;;;16.60;93.85
73952;BME280;62304;47.662;18.324;2023-05-07T07:09:44;100446.31;;;16.53;94.25
73952;BME280;62304;47.662;18.324;2023-05-07T07:12:49;100448.72;;;16.47;94.54
73952;BME280;62304;47.662;18.324;2023-05-07T07:15:52;100461.13;;;16.46;94.03
73952;BME280;62304;47.662;18.324;2023-05-07T07:18:56;100455.53;;;16.46;94.25
73952;BME280;62304;47.662;18.324;2023-05-07T07:21:59;100463.56;;;16.41;95.12
73952;BME280;62304;47.662;18.324;2023-05-07T07:25:03;100445.88;;;16.58;94.36
73952;BME280;62304;47.662;18.324;2023-05-07T07:28:06;100453.81;;;16.70;93.84
73952;BME280;62304;47.662;18.324;2023-05-07T07:31:11;100459.31;;;16.84;94.10
73952;BME280;62304;47.662;18.324;2023-05-07T07:34:15;100464.84;;;16.98;93.31
73952;BME280;62304;47.662;18.324;2023-05-07T07:37:18;100464.91;;;16.91;93.85
73952;BME280;62304;47.662;18.324;2023-05-07T07:40:21;100474.00;;;17.05;93.67
73952;BME280;62304;47.662;18.324;2023-05-07T07:43:24;100473.31;;;16.87;93.22
73952;BME280;62304;47.662;18.324;2023-05-07T07:46:28;100472.28;;;16.60;94.23
73952;BME280;62304;47.662;18.324;2023-05-07T07:49:31;100480.25;;;16.58;94.35
73952;BME280;62304;47.662;18.324;2023-05-07T07:52:35;100474.63;;;16.69;93.96
73952;BME280;62304;47.662;18.324;2023-05-07T07:55:39;100463.78;;;16.74;93.75
73952;BME280;62304;47.662;18.324;2023-05-07T07:58:43;100468.47;;;16.91;93.49
73952;BME280;62304;47.662;18.324;2023-05-07T08:01:47;100470.53;;;16.87;93.31
73952;BME280;62304;47.662;18.324;2023-05-07T08:04:56;100467.84;;;17.24;92.81
73952;BME280;62304;47.662;18.324;2023-05-07T08:08:00;100472.47;;;17.52;90.80
73952;BME280;62304;47.662;18.324;2023-05-07T08:11:04;100474.87;;;17.53;90.06
73952;BME280;62304;47.662;18.324;2023-05-07T08:14:08;100473.97;;;17.63;89.51
73952;BME280;62304;47.662;18.324;2023-05-07T08:17:11;100472.94;;;17.87;87.80
73952;BME280;62304;47.662;18.324;2023-05-07T08:20:15;100472.69;;;18.08;87.06
73952;BME280;62304;47.662;18.324;2023-05-07T08:23:19;100475.66;;;18.35;86.75
73952;BME280;62304;47.662;18.324;2023-05-07T08:26:22;100480.69;;;18.80;85.18
73952;BME280;62304;47.662;18.324;2023-05-07T08:29:25;100470.28;;;19.34;83.27
73952;BME280;62304;47.662;18.324;2023-05-07T08:32:28;100485.78;;;19.68;81.58
73952;BME280;62304;47.662;18.324;2023-05-07T08:35:32;100481.59;;;19.53;81.28
73952;BME280;62304;47.662;18.324;2023-05-07T08:38:35;100489.09;;;19.37;80.77
73952;BME280;62304;47.662;18.324;2023-05-07T08:41:38;100485.38;;;19.43;80.55
73952;BME280;62304;47.662;18.324;2023-05-07T08:44:45;100491.41;;;19.15;81.53
73952;BME280;62304;47.662;18.324;2023-05-07T08:47:58;100484.03;;;18.68;82.48
73952;BME280;62304;47.662;18.324;2023-05-07T08:51:03;100483.97;;;18.75;82.61
73952;BME280;62304;47.662;18.324;2023-05-07T08:54:07;100486.38;;;18.73;82.49
73952;BME280;62304;47.662;18.324;2023-05-07T08:57:11;100494.16;;;18.62;81.99
73952;BME280;62304;47.662;18.324;2023-05-07T09:00:15;100490.25;;;18.86;81.80
73952;BME280;62304;47.662;18.324;2023-05-07T09:03:19;100493.59;;;18.74;82.33
73952;BME280;62304;47.662;18.324;2023-05-07T09:06:23;100494.50;;;18.68;83.01
73952;BME280;62304;47.662;18.324;2023-05-07T09:09:27;100488.63;;;18.85;82.15
73952;BME280;62304;47.662;18.324;2023-05-07T09:12:30;100482.94;;;18.92;81.57
73952;BME280;62304;47.662;18.324;2023-05-07T09:15:34;100484.53;;;19.46;81.03
73952;BME280;62304;47.662;18.324;2023-05-07T09:18:44;100492.13;;;20.18;76.94
73952;BME280;62304;47.662;18.324;2023-05-07T09:21:47;100487.34;;;20.93;74.30
73952;BME280;62304;47.662;18.324;2023-05-07T09:24:51;100482.16;;;21.75;70.86
73952;BME280;62304;47.662;18.324;2023-05-07T09:27:55;100488.16;;;21.45;72.74
73952;BME280;62304;47.662;18.324;2023-05-07T09:30:58;100488.03;;;21.32;72.22
73952;BME280;62304;47.662;18.324;2023-05-07T09:34:01;100489.91;;;21.23;72.86
73952;BME280;62304;47.662;18.324;2023-05-07T09:37:05;100485.47;;;21.38;72.71
73952;BME280;62304;47.662;18.324;2023-05-07T09:40:23;100482.22;;;21.39;71.95
73952;BME280;62304;47.662;18.324;2023-05-07T09:43:32;100489.78;;;21.78;70.89
73952;BME280;62304;47.662;18.324;2023-05-07T09:46:38;100488.28;;;22.18;68.32
73952;BME280;62304;47.662;18.324;2023-05-07T09:49:49;100483.75;;;22.65;66.45
73952;BME280;62304;47.662;18.324;2023-05-07T09:52:54;100484.25;;;23.01;65.62
73952;BME280;62304;47.662;18.324;2023-05-07T09:55:59;100468.22;;;23.23;65.58
73952;BME280;62304;47.662;18.324;2023-05-07T09:59:06;100477.34;;;23.14;62.17
73952;BME280;62304;47.662;18.324;2023-05-07T10:02:11;100465.72;;;23.37;63.60
73952;BME280;62304;47.662;18.324;2023-05-07T10:05:21;100472.06;;;23.29;64.61
73952;BME280;62304;47.662;18.324;2023-05-07T10:08:25;100473.31;;;23.28;64.61
73952;BME280;62304;47.662;18.324;2023-05-07T10:11:32;100466.66;;;22.68;65.70
73952;BME280;62304;47.662;18.324;2023-05-07T10:14:35;100472.69;;;22.83;64.10
73952;BME280;62304;47.662;18.324;2023-05-07T10:17:40;100465.53;;;22.66;64.99
73952;BME280;62304;47.662;18.324;2023-05-07T10:20:45;100462.94;;;22.84;62.68
73952;BME280;62304;47.662;18.324;2023-05-07T10:24:03;100461.00;;;22.68;60.67
73952;BME280;62304;47.662;18.324;2023-05-07T10:27:12;100473.31;;;23.28;60.82
73952;BME280;62304;47.662;18.324;2023-05-07T10:30:44;100461.75;;;23.22;59.80
73952;BME280;62304;47.662;18.324;2023-05-07T10:33:52;100463.41;;;23.70;57.43
73952;BME280;62304;47.662;18.324;2023-05-07T10:36:56;100455.62;;;23.61;56.62
73952;BME280;62304;47.662;18.324;2023-05-07T10:39:59;100453.16;;;23.26;57.13
73952;BME280;62304;47.662;18.324;2023-05-07T10:43:05;100457.53;;;24.11;54.93
73952;BME280;62304;47.662;18.324;2023-05-07T10:49:21;100450.37;;;24.83;51.32
73952;BME280;62304;47.662;18.324;2023-05-07T10:52:26;100442.41;;;25.00;50.99
73952;BME280;62304;47.662;18.324;2023-05-07T10:55:30;100445.22;;;24.91;50.32
73952;BME280;62304;47.662;18.324;2023-05-07T10:58:33;100432.22;;;24.81;50.87
73952;BME280;62304;47.662;18.324;2023-05-07T11:05:20;100439.34;;;25.64;48.32
73952;BME280;62304;47.662;18.324;2023-05-07T11:08:25;100441.41;;;25.64;47.43
73952;BME280;62304;47.662;18.324;2023-05-07T11:11:49;100454.16;;;25.20;49.48
73952;BME280;62304;47.662;18.324;2023-05-07T11:14:56;100446.69;;;25.04;47.91
73952;BME280;62304;47.662;18.324;2023-05-07T11:18:00;100446.56;;;25.08;47.44
73952;BME280;62304;47.662;18.324;2023-05-07T11:21:05;100443.50;;;24.07;50.36
73952;BME280;62304;47.662;18.324;2023-05-07T11:24:09;100443.19;;;24.70;49.27
73952;BME280;62304;47.662;18.324;2023-05-07T11:27:14;100440.44;;;25.67;47.24
73952;BME280;62304;47.662;18.324;2023-05-07T11:30:25;100426.87;;;26.79;44.24
73952;BME280;62304;47.662;18.324;2023-05-07T11:33:30;100435.88;;;26.86;43.69
73952;BME280;62304;47.662;18.324;2023-05-07T11:36:34;100430.44;;;26.29;44.96
73952;BME280;62304;47.662;18.324;2023-05-07T11:39:38;100427.88;;;25.95;47.58
73952;BME280;62304;47.662;18.324;2023-05-07T11:42:41;100433.25;;;26.47;44.87
73952;BME280;62304;47.662;18.324;2023-05-07T11:45:48;100437.97;;;25.87;45.25
73952;BME280;62304;47.662;18.324;2023-05-07T11:48:51;100426.19;;;25.40;45.05
73952;BME280;62304;47.662;18.324;2023-05-07T11:51:54;100426.47;;;25.99;42.92
73952;BME280;62304;47.662;18.324;2023-05-07T11:54:58;100434.56;;;25.52;41.61
73952;BME280;62304;47.662;18.324;2023-05-07T11:58:02;100433.87;;;26.06;42.54
73952;BME280;62304;47.662;18.324;2023-05-07T12:01:08;100430.56;;;26.34;42.58
73952;BME280;62304;47.662;18.324;2023-05-07T12:04:12;100430.37;;;26.74;41.88
73952;BME280;62304;47.662;18.324;2023-05-07T12:07:15;100423.75;;;26.50;40.63
73952;BME280;62304;47.662;18.324;2023-05-07T12:10:19;100414.75;;;27.11;41.34
73952;BME280;62304;47.662;18.324;2023-05-07T12:13:24;100419.16;;;27.53;40.51
73952;BME280;62304;47.662;18.324;2023-05-07T12:16:28;100420.16;;;27.65;39.75
73952;BME280;62304;47.662;18.324;2023-05-07T12:19:33;100427.97;;;27.32;41.38
73952;BME280;62304;47.662;18.324;2023-05-07T12:22:37;100416.63;;;27.46;41.08
73952;BME280;62304;47.662;18.324;2023-05-07T12:25:41;100400.09;;;26.94;40.45
73952;BME280;62304;47.662;18.324;2023-05-07T12:28:49;100416.66;;;25.91;42.00
73952;BME280;62304;47.662;18.324;2023-05-07T12:31:52;100414.22;;;24.53;45.57
73952;BME280;62304;47.662;18.324;2023-05-07T12:34:55;100423.72;;;24.59;46.19
73952;BME280;62304;47.662;18.324;2023-05-07T12:37:59;100417.19;;;24.50;46.45
73952;BME280;62304;47.662;18.324;2023-05-07T12:41:08;100417.66;;;24.48;46.24
73952;BME280;62304;47.662;18.324;2023-05-07T12:44:15;100406.37;;;24.14;46.18
73952;BME280;62304;47.662;18.324;2023-05-07T12:47:18;100414.06;;;24.57;47.03
73952;BME280;62304;47.662;18.324;2023-05-07T12:50:21;100409.44;;;25.33;44.43
73952;BME280;62304;47.662;18.324;2023-05-07T12:53:25;100407.63;;;25.75;43.19
73952;BME280;62304;47.662;18.324;2023-05-07T12:56:31;100402.87;;;25.72;43.14
73952;BME280;62304;47.662;18.324;2023-05-07T12:59:41;100395.34;;;26.14;42.10
73952;BME280;62304;47.662;18.324;2023-05-07T13:02:45;100407.31;;;25.64;43.12
73952;BME280;62304;47.662;18.324;2023-05-07T13:05:48;100398.34;;;26.37;41.05
73952;BME280;62304;47.662;18.324;2023-05-07T13:08:52;100399.75;;;26.42;40.19
73952;BME280;62304;47.662;18.324;2023-05-07T13:11:56;100385.41;;;26.18;39.94
73952;BME280;62304;47.662;18.324;2023-05-07T13:14:59;100392.63;;;26.55;40.45
73952;BME280;62304;47.662;18.324;2023-05-07T13:18:02;100389.25;;;26.75;39.90
73952;BME280;62304;47.662;18.324;2023-05-07T13:21:05;100388.06;;;26.40;39.91
73952;BME280;62304;47.662;18.324;2023-05-07T13:24:08;100388.22;;;26.54;38.91
73952;BME280;62304;47.662;18.324;2023-05-07T13:27:11;100385.87;;;25.90;40.00
73952;BME280;62304;47.662;18.324;2023-05-07T13:30:14;100390.75;;;25.71;39.48
73952;BME280;62304;47.662;18.324;2023-05-07T13:33:17;100393.09;;;25.46;38.91
73952;BME280;62304;47.662;18.324;2023-05-07T13:36:21;100387.88;;;25.44;39.70
73952;BME280;62304;47.662;18.324;2023-05-07T13:39:23;100387.25;;;25.10;40.09
73952;BME280;62304;47.662;18.324;2023-05-07T13:42:27;100386.47;;;25.58;39.74
73952;BME280;62304;47.662;18.324;2023-05-07T13:45:30;100382.50;;;25.64;38.01
73952;BME280;62304;47.662;18.324;2023-05-07T13:48:33;100371.66;;;25.63;39.23
73952;BME280;62304;47.662;18.324;2023-05-07T13:51:35;100382.78;;;25.30;39.23
73952;BME280;62304;47.662;18.324;2023-05-07T13:54:39;100377.50;;;25.20;40.00
73952;BME280;62304;47.662;18.324;2023-05-07T13:57:41;100378.56;;;25.53;40.10
73952;BME280;62304;47.662;18.324;2023-05-07T14:00:44;100380.88;;;25.36;39.92
73952;BME280;62304;47.662;18.324;2023-05-07T14:03:48;100378.22;;;25.42;40.74
73952;BME280;62304;47.662;18.324;2023-05-07T14:06:51;100387.03;;;24.43;42.49
73952;BME280;62304;47.662;18.324;2023-05-07T14:09:54;100381.84;;;23.65;43.05
73952;BME280;62304;47.662;18.324;2023-05-07T14:12:57;100388.50;;;22.62;45.22
73952;BME280;62304;47.662;18.324;2023-05-07T14:16:00;100378.44;;;22.86;45.01
73952;BME280;62304;47.662;18.324;2023-05-07T14:19:03;100380.25;;;22.92;45.52
73952;BME280;62304;47.662;18.324;2023-05-07T14:22:06;100379.00;;;22.81;45.49
73952;BME280;62304;47.662;18.324;2023-05-07T14:25:09;100378.31;;;23.02;45.34
73952;BME280;62304;47.662;18.324;2023-05-07T14:28:12;100366.44;;;22.94;45.45
73952;BME280;62304;47.662;18.324;2023-05-07T14:31:15;100377.28;;;23.08;45.11
73952;BME280;62304;47.662;18.324;2023-05-07T14:34:18;100388.53;;;22.87;45.08
73952;BME280;62304;47.662;18.324;2023-05-07T14:37:23;100399.72;;;22.78;45.97
73952;BME280;62304;47.662;18.324;2023-05-07T14:40:27;100388.16;;;22.85;45.54
73952;BME280;62304;47.662;18.324;2023-05-07T14:43:29;100386.16;;;22.32;46.96
73952;BME280;62304;47.662;18.324;2023-05-07T14:46:32;100397.47;;;22.32;47.12
73952;BME280;62304;47.662;18.324;2023-05-07T14:49:36;100391.94;;;22.00;47.65
73952;BME280;62304;47.662;18.324;2023-05-07T14:52:39;100387.88;;;22.01;47.15
73952;BME280;62304;47.662;18.324;2023-05-07T14:55:41;100391.94;;;22.12;47.66
73952;BME280;62304;47.662;18.324;2023-05-07T14:58:46;100390.97;;;22.19;47.12
73952;BME280;62304;47.662;18.324;2023-05-07T15:01:49;100386.78;;;22.23;47.10
73952;BME280;62304;47.662;18.324;2023-05-07T15:04:52;100372.50;;;22.02;47.70
73952;BME280;62304;47.662;18.324;2023-05-07T15:07:55;100381.44;;;21.72;48.15
73952;BME280;62304;47.662;18.324;2023-05-07T15:10:59;100378.47;;;21.91;47.36
73952;BME280;62304;47.662;18.324;2023-05-07T15:14:01;100372.75;;;21.79;47.60
73952;BME280;62304;47.662;18.324;2023-05-07T15:17:05;100382.31;;;21.69;47.62
73952;BME280;62304;47.662;18.324;2023-05-07T15:20:08;100381.22;;;21.63;47.74
73952;BME280;62304;47.662;18.324;2023-05-07T15:23:11;100382.31;;;21.69;47.36
73952;BME280;62304;47.662;18.324;2023-05-07T15:26:17;100386.78;;;21.50;46.64
73952;BME280;62304;47.662;18.324;2023-05-07T15:29:21;100394.31;;;21.41;47.50
73952;BME280;62304;47.662;18.324;2023-05-07T15:32:24;100399.41;;;21.46;47.56
73952;BME280;62304;47.662;18.324;2023-05-07T15:35:28;100396.94;;;21.32;47.70
73952;BME280;62304;47.662;18.324;2023-05-07T15:38:30;100396.59;;;20.98;47.99
73952;BME280;62304;47.662;18.324;2023-05-07T15:41:33;100398.00;;;20.90;48.68
73952;BME280;62304;47.662;18.324;2023-05-07T15:44:36;100402.69;;;20.77;48.83
73952;BME280;62304;47.662;18.324;2023-05-07T15:47:40;100414.16;;;20.50;48.59
73952;BME280;62304;47.662;18.324;2023-05-07T15:50:43;100417.41;;;20.49;48.46
73952;BME280;62304;47.662;18.324;2023-05-07T15:53:47;100420.03;;;20.40;48.05